Flight Track Log - Related Links

Times and Time Zones

All times are in EDT time to prevent confusion due to time zone crossing. See the KAP17 flight status page for this flight to view local times or setup timezone preferences in your user account.

Time Position Orientation Groundspeed Altitude Reporting Facility
EDT Latitude Longitude Course Direction KTS MPH feet Rate Location/Type
Thu 12:10:14 PM 42.3833 -71.0000 340° North 115 132 400  Level KA90
Thu 12:11:18 PM 42.4167 -71.0167 340° North 119 137 1,200 738 Climbing KA90
Thu 12:12:24 PM 42.4500 -71.0333 340° North 124 143 2,000 756 Climbing KA90
Thu 12:13:25 PM 42.4833 -71.0500 340° North 125 144 2,800 694 Climbing KA90
Thu 12:14:25 PM 42.5167 -71.0833 324° Northwest 139 160 3,400 595 Climbing KA90
Thu 12:15:26 PM 42.5500 -71.1000 340° North 144 166 4,000 655 Climbing KA90
Thu 12:16:24 PM 42.5833 -71.1333 324° Northwest 144 166 4,700 637 Climbing KA90
Thu 12:17:19 PM 42.6167 -71.1500 340° North 149 171 5,200 626 Climbing KA90
Thu 12:18:19 PM 42.6500 -71.1833 324° Northwest 145 167 5,900 450 Climbing KA90
Thu 12:19:19 PM 42.6833 -71.2167 324° Northwest 159 183 6,100 100 Climbing KA90
Thu 12:20:19 PM 42.7333 -71.2500 334° Northwest 172 198 6,100 47 Level KA90
Thu 12:21:26 PM 42.7667 -71.3000 312° West 169 194 6,200  Climbing KA90
Thu 12:22:32 PM 42.8167 -71.3333 334° Northwest 173 199 6,100 -49 Descending KA90
Thu 12:23:29 PM 42.8500 -71.3833 312° West 171 197 6,100  Level KA90
Thu 12:24:30 PM 42.8833 -71.4167 324° Northwest 177 204 6,100  Level KA90
Thu 12:25:30 PM 42.9167 -71.4667 312° West 168 193 6,100  Level KA90
Thu 12:26:31 PM 42.9500 -71.5000 324° Northwest 167 192 6,100  Level KA90
Thu 12:27:39 PM 42.9908 -71.5572 314° West 173 199 6,100  Level Boston Center
Thu 12:28:39 PM 43.0267 -71.5994 319° Northwest 173 199 6,100  Level Boston Center
Thu 12:29:39 PM 43.0603 -71.6358 322° Northwest 163 188 6,100  Level Boston Center
Thu 12:30:39 PM 43.0939 -71.6781 317° Northwest 163 188 6,100 50 Level Boston Center
Thu 12:31:39 PM 43.1297 -71.7147 323° Northwest 163 188 6,200 50 Climbing Boston Center
Thu 12:32:39 PM 43.1736 -71.7342 342° North 163 188 6,200 -50 Level Boston Center
Thu 12:33:39 PM 43.2175 -71.7564 340° North 163 188 6,100 -50 Descending Boston Center
Thu 12:34:39 PM 43.2633 -71.7758 343° North 168 193 6,100  Level Boston Center
Thu 12:35:39 PM 43.3072 -71.7981 340° North 168 193 6,100 -50 Level Boston Center
Thu 12:36:39 PM 43.3511 -71.8175 342° North 168 193 6,000 -50 Descending Boston Center
Thu 12:37:39 PM 43.3950 -71.8372 342° North 168 193 6,000 50 Level Boston Center
Thu 12:38:39 PM 43.4325 -71.8569 339° North 168 193 6,100 50 Climbing Boston Center
Thu 12:39:39 PM 43.4847 -71.8822 341° North 168 193 6,100  Level Boston Center
Thu 12:40:39 PM 43.5308 -71.9044 341° North 173 199 6,100  Level Boston Center
Thu 12:41:39 PM 43.5747 -71.9214 344° North 173 199 6,100 -100 Level Boston Center
Thu 12:42:39 PM 43.6206 -71.9439 340° North 173 199 5,900 -300 Descending Boston Center
Thu 12:43:39 PM 43.6686 -71.9667 341° North 173 199 5,500 -409 Descending Boston Center
Thu 12:44:51 PM 43.7167 -72.0036 331° Northwest 178 205 5,000 -409 Descending Boston Center
Thu 12:45:51 PM 43.7314 -72.0608 290° West 147 169 4,600 -600 Descending Boston Center
Thu 12:46:51 PM 43.7150 -72.1128 246° West 130 150 3,800 -591 Descending Boston Center
Thu 12:48:03 PM 43.7006 -72.1672 250° West 137 158 3,300 -682 Descending Boston Center
Thu 12:49:03 PM 43.6736 -72.2247 237° Southwest 143 165 2,300 -1,000 Descending Boston Center

Login

Don't have an account? Register now (free) for customized features, flight alerts, and more!